EZY2355 EGKK-LSGG
Flight info
| Callsign | EZY2355 |
|---|---|
| Flight time | 1h 12m |
| Altitude | 31000 |
| Route | SFD4Z SFD Y47 BENBO L612 HAWKE UL612 VEULE DCT PEKIM DCT PILUL DCT PIMUP/N0400F270 DCT PIXIS DCT PIBAT DCT LUSAR LUSAR2N |
| Aircraft | A320/M-SDE3FGHIRWY/LB1 |
Departure
| Time | 2026-05-07 17:39 |
|---|---|
| Airport | London Gatwick Airport (EGKK) |
Arrival
| Time | 2026-05-07 18:52 |
|---|---|
| Airport | Geneva International Airport (LSGG) |
| Time | Latitude | Longitude | Altitude | Speed | Heading |
|---|---|---|---|---|---|
| 2026-05-07 16:57 | 51.15506 | -0.16778 | 204 ft | 0 kts | 348° |
| 2026-05-07 17:06 | 51.15505 | -0.16778 | 204 ft | 0 kts | 348° |
| 2026-05-07 17:24 | 51.15504 | -0.16777 | 214 ft | 2 kts | 348° |
| 2026-05-07 17:24 | 51.15479 | -0.16766 | 209 ft | 4 kts | 333° |
| 2026-05-07 17:25 | 51.15458 | -0.16742 | 216 ft | 4 kts | 309° |
| 2026-05-07 17:25 | 51.15445 | -0.16707 | 208 ft | 4 kts | 279° |
| 2026-05-07 17:25 | 51.15444 | -0.16696 | 210 ft | 1 kts | 274° |
| 2026-05-07 17:27 | 51.15444 | -0.16695 | 210 ft | 0 kts | 274° |
| 2026-05-07 17:31 | 51.15445 | -0.16701 | 209 ft | 1 kts | 274° |
| 2026-05-07 17:31 | 51.15445 | -0.16715 | 206 ft | 2 kts | 276° |
| 2026-05-07 17:31 | 51.15451 | -0.16775 | 213 ft | 9 kts | 278° |
| 2026-05-07 17:31 | 51.15442 | -0.16871 | 209 ft | 8 kts | 256° |
| 2026-05-07 17:32 | 51.15431 | -0.16950 | 210 ft | 7 kts | 258° |
| 2026-05-07 17:32 | 51.15422 | -0.17015 | 205 ft | 6 kts | 258° |
| 2026-05-07 17:32 | 51.15414 | -0.17080 | 208 ft | 9 kts | 258° |
| 2026-05-07 17:32 | 51.15378 | -0.17238 | 205 ft | 21 kts | 251° |
| 2026-05-07 17:33 | 51.15316 | -0.17376 | 216 ft | 14 kts | 224° |
| 2026-05-07 17:33 | 51.15291 | -0.17515 | 209 ft | 13 kts | 259° |
| 2026-05-07 17:33 | 51.15274 | -0.17642 | 211 ft | 11 kts | 257° |
| 2026-05-07 17:33 | 51.15259 | -0.17746 | 213 ft | 9 kts | 257° |
| 2026-05-07 17:34 | 51.15247 | -0.17830 | 204 ft | 7 kts | 257° |
| 2026-05-07 17:34 | 51.15237 | -0.17901 | 206 ft | 6 kts | 257° |
| 2026-05-07 17:34 | 51.15221 | -0.18020 | 205 ft | 16 kts | 258° |
| 2026-05-07 17:34 | 51.15192 | -0.18250 | 209 ft | 26 kts | 260° |
| 2026-05-07 17:35 | 51.15153 | -0.18573 | 203 ft | 32 kts | 257° |
| 2026-05-07 17:35 | 51.15102 | -0.18922 | 207 ft | 32 kts | 258° |
| 2026-05-07 17:35 | 51.15055 | -0.19275 | 214 ft | 32 kts | 258° |
| 2026-05-07 17:35 | 51.15007 | -0.19624 | 206 ft | 33 kts | 257° |
| 2026-05-07 17:36 | 51.14956 | -0.19977 | 211 ft | 33 kts | 257° |
| 2026-05-07 17:36 | 51.14922 | -0.20224 | 203 ft | 20 kts | 259° |
| 2026-05-07 17:36 | 51.14894 | -0.20447 | 207 ft | 21 kts | 257° |
| 2026-05-07 17:36 | 51.14852 | -0.20628 | 211 ft | 15 kts | 218° |
| 2026-05-07 17:37 | 51.14756 | -0.20707 | 212 ft | 15 kts | 207° |
| 2026-05-07 17:37 | 51.14714 | -0.20717 | 204 ft | 0 kts | 169° |
| 2026-05-07 17:38 | 51.14712 | -0.20716 | 204 ft | 2 kts | 169° |
| 2026-05-07 17:38 | 51.14676 | -0.20706 | 204 ft | 9 kts | 170° |
| 2026-05-07 17:38 | 51.14600 | -0.20659 | 213 ft | 15 kts | 124° |
| 2026-05-07 17:38 | 51.14620 | -0.20433 | 207 ft | 40 kts | 77° |
| 2026-05-07 17:39 | 51.14732 | -0.19612 | 209 ft | 108 kts | 78° |
| 2026-05-07 17:39 | 51.14935 | -0.18146 | 209 ft | 159 kts | 78° |
| 2026-05-07 17:39 | 51.15155 | -0.16320 | 624 ft | 172 kts | 82° |
| 2026-05-07 17:39 | 51.15374 | -0.14402 | 1220 ft | 181 kts | 83° |
| 2026-05-07 17:40 | 51.15589 | -0.12382 | 1852 ft | 185 kts | 82° |
| 2026-05-07 17:40 | 51.15766 | -0.10528 | 2449 ft | 186 kts | 82° |
| 2026-05-07 17:40 | 51.15940 | -0.08484 | 3150 ft | 182 kts | 87° |
| 2026-05-07 17:40 | 51.15697 | -0.06530 | 3703 ft | 190 kts | 123° |
| 2026-05-07 17:41 | 51.14598 | -0.05230 | 3973 ft | 214 kts | 162° |
| 2026-05-07 17:41 | 51.13103 | -0.04716 | 4575 ft | 223 kts | 167° |
| 2026-05-07 17:41 | 51.11573 | -0.04221 | 5353 ft | 226 kts | 167° |
| 2026-05-07 17:41 | 51.10014 | -0.03713 | 5879 ft | 231 kts | 168° |
| 2026-05-07 17:42 | 51.08422 | -0.03115 | 5997 ft | 244 kts | 164° |
| 2026-05-07 17:42 | 51.06878 | -0.02415 | 6005 ft | 249 kts | 162° |
| 2026-05-07 17:42 | 51.05212 | -0.01611 | 6008 ft | 250 kts | 162° |
| 2026-05-07 17:42 | 51.03538 | -0.00789 | 6375 ft | 253 kts | 162° |
| 2026-05-07 17:43 | 51.01819 | 0.00050 | 6967 ft | 267 kts | 163° |
| 2026-05-07 17:43 | 51.00012 | 0.00920 | 7692 ft | 274 kts | 163° |
| 2026-05-07 17:43 | 50.98176 | 0.01795 | 8549 ft | 277 kts | 164° |
| 2026-05-07 17:43 | 50.96319 | 0.02677 | 9419 ft | 280 kts | 165° |
| 2026-05-07 17:44 | 50.94444 | 0.03566 | 10254 ft | 283 kts | 165° |
| 2026-05-07 17:44 | 50.92467 | 0.04179 | 10614 ft | 301 kts | 181° |
| 2026-05-07 17:44 | 50.90295 | 0.04080 | 10880 ft | 321 kts | 184° |
| 2026-05-07 17:44 | 50.88029 | 0.03920 | 11471 ft | 329 kts | 184° |
| 2026-05-07 17:45 | 50.85724 | 0.03747 | 12169 ft | 334 kts | 184° |
| 2026-05-07 17:45 | 50.83386 | 0.03574 | 12890 ft | 338 kts | 184° |
| 2026-05-07 17:45 | 50.81030 | 0.03406 | 13618 ft | 341 kts | 183° |
| 2026-05-07 17:45 | 50.78645 | 0.03245 | 14269 ft | 345 kts | 183° |
| 2026-05-07 17:46 | 50.76232 | 0.03085 | 14886 ft | 348 kts | 184° |
| 2026-05-07 17:46 | 50.73795 | 0.02926 | 15189 ft | 351 kts | 184° |
| 2026-05-07 17:46 | 50.71386 | 0.02770 | 15256 ft | 351 kts | 184° |
| 2026-05-07 17:46 | 50.68913 | 0.02609 | 15259 ft | 351 kts | 184° |
| 2026-05-07 17:47 | 50.66509 | 0.02451 | 15261 ft | 351 kts | 184° |
| 2026-05-07 17:47 | 50.64038 | 0.02289 | 15251 ft | 351 kts | 184° |
| 2026-05-07 17:47 | 50.61631 | 0.02127 | 15259 ft | 351 kts | 184° |
| 2026-05-07 17:47 | 50.59193 | 0.01960 | 15254 ft | 351 kts | 184° |
| 2026-05-07 17:48 | 50.56750 | 0.01791 | 15258 ft | 351 kts | 184° |
| 2026-05-07 17:48 | 50.54308 | 0.01626 | 15257 ft | 351 kts | 184° |
| 2026-05-07 17:48 | 50.51865 | 0.01464 | 15257 ft | 351 kts | 184° |
| 2026-05-07 17:48 | 50.49426 | 0.01304 | 15254 ft | 351 kts | 184° |
| 2026-05-07 17:49 | 50.46981 | 0.01377 | 15253 ft | 353 kts | 174° |
| 2026-05-07 17:49 | 50.44586 | 0.02247 | 15266 ft | 356 kts | 162° |
| 2026-05-07 17:49 | 50.42346 | 0.03950 | 15799 ft | 362 kts | 149° |
| 2026-05-07 17:49 | 50.40229 | 0.06136 | 16454 ft | 365 kts | 148° |
| 2026-05-07 17:50 | 50.38101 | 0.08328 | 17040 ft | 369 kts | 149° |
| 2026-05-07 17:50 | 50.35944 | 0.10542 | 17409 ft | 372 kts | 149° |
| 2026-05-07 17:50 | 50.33775 | 0.12771 | 18056 ft | 374 kts | 149° |
| 2026-05-07 17:50 | 50.31591 | 0.15016 | 18612 ft | 377 kts | 149° |
| 2026-05-07 17:51 | 50.29391 | 0.17276 | 19133 ft | 380 kts | 149° |
| 2026-05-07 17:51 | 50.27173 | 0.19555 | 19656 ft | 383 kts | 149° |
| 2026-05-07 17:51 | 50.24941 | 0.21850 | 20169 ft | 386 kts | 149° |
| 2026-05-07 17:51 | 50.22691 | 0.24159 | 20672 ft | 388 kts | 149° |
| 2026-05-07 17:52 | 50.20427 | 0.26479 | 20916 ft | 390 kts | 149° |
| 2026-05-07 17:52 | 50.18152 | 0.28814 | 21278 ft | 392 kts | 149° |
| 2026-05-07 17:52 | 50.15870 | 0.31165 | 21819 ft | 394 kts | 149° |
| 2026-05-07 17:52 | 50.13580 | 0.33528 | 22303 ft | 396 kts | 149° |
| 2026-05-07 17:53 | 50.11274 | 0.35906 | 22795 ft | 399 kts | 149° |
| 2026-05-07 17:53 | 50.08950 | 0.38294 | 23267 ft | 402 kts | 149° |
| 2026-05-07 17:53 | 50.06607 | 0.40692 | 23708 ft | 404 kts | 149° |
| 2026-05-07 17:53 | 50.04248 | 0.43103 | 24085 ft | 407 kts | 149° |
| 2026-05-07 17:54 | 50.01875 | 0.45526 | 24473 ft | 409 kts | 149° |
| 2026-05-07 17:54 | 49.99489 | 0.47957 | 24811 ft | 412 kts | 149° |
| 2026-05-07 17:54 | 49.97084 | 0.50400 | 25181 ft | 414 kts | 149° |
| 2026-05-07 17:54 | 49.94667 | 0.52851 | 25541 ft | 416 kts | 149° |
| 2026-05-07 17:55 | 49.92231 | 0.55320 | 25907 ft | 419 kts | 149° |
| 2026-05-07 17:55 | 49.89789 | 0.57797 | 26195 ft | 421 kts | 149° |
| 2026-05-07 17:55 | 49.87345 | 0.60279 | 26244 ft | 420 kts | 149° |
| 2026-05-07 17:55 | 49.84997 | 0.62983 | 26256 ft | 423 kts | 140° |
| 2026-05-07 17:56 | 49.82899 | 0.66060 | 26610 ft | 426 kts | 139° |
| 2026-05-07 17:56 | 49.80743 | 0.69224 | 26986 ft | 427 kts | 139° |
| 2026-05-07 17:56 | 49.78569 | 0.72386 | 26803 ft | 429 kts | 139° |
| 2026-05-07 17:56 | 49.76405 | 0.75511 | 27585 ft | 429 kts | 139° |
| 2026-05-07 17:57 | 49.74210 | 0.78670 | 27895 ft | 432 kts | 139° |
| 2026-05-07 17:57 | 49.72750 | 0.80774 | 28113 ft | 434 kts | 139° |
| 2026-05-07 17:57 | 49.69821 | 0.85007 | 28554 ft | 437 kts | 139° |
| 2026-05-07 17:57 | 49.67595 | 0.88231 | 28883 ft | 439 kts | 139° |
| 2026-05-07 17:58 | 49.65329 | 0.91509 | 29195 ft | 441 kts | 139° |
| 2026-05-07 17:58 | 49.63118 | 0.94702 | 29486 ft | 444 kts | 139° |
| 2026-05-07 17:58 | 49.60856 | 0.97960 | 29787 ft | 446 kts | 139° |
| 2026-05-07 17:58 | 49.58558 | 1.01265 | 30108 ft | 447 kts | 139° |
| 2026-05-07 17:59 | 49.56279 | 1.04536 | 30355 ft | 449 kts | 139° |
| 2026-05-07 17:59 | 49.54020 | 1.07779 | 30609 ft | 450 kts | 139° |
| 2026-05-07 17:59 | 49.51724 | 1.11068 | 30845 ft | 452 kts | 139° |
| 2026-05-07 17:59 | 49.49417 | 1.14365 | 30998 ft | 452 kts | 139° |
| 2026-05-07 18:00 | 49.44933 | 1.20764 | 31030 ft | 431 kts | 140° |
| 2026-05-07 18:00 | 49.40527 | 1.27034 | 31023 ft | 428 kts | 140° |
| 2026-05-07 18:01 | 49.36893 | 1.32193 | 31030 ft | 428 kts | 140° |
| 2026-05-07 18:01 | 49.32518 | 1.38401 | 31033 ft | 429 kts | 140° |
| 2026-05-07 18:02 | 49.25934 | 1.47701 | 31030 ft | 429 kts | 140° |
| 2026-05-07 18:03 | 49.21550 | 1.53868 | 31024 ft | 428 kts | 140° |
| 2026-05-07 18:03 | 49.17162 | 1.60023 | 31026 ft | 428 kts | 140° |
| 2026-05-07 18:04 | 49.12770 | 1.66170 | 31018 ft | 428 kts | 140° |
| 2026-05-07 18:04 | 49.08385 | 1.72302 | 31026 ft | 428 kts | 140° |
| 2026-05-07 18:05 | 49.03992 | 1.78428 | 30998 ft | 428 kts | 140° |
| 2026-05-07 18:05 | 48.99590 | 1.84547 | 31016 ft | 428 kts | 140° |
| 2026-05-07 18:06 | 48.95182 | 1.90664 | 31014 ft | 428 kts | 140° |
| 2026-05-07 18:06 | 48.90779 | 1.96754 | 31016 ft | 428 kts | 140° |
| 2026-05-07 18:07 | 48.86360 | 2.02847 | 31016 ft | 429 kts | 140° |
| 2026-05-07 18:07 | 48.81948 | 2.08921 | 31018 ft | 429 kts | 140° |
| 2026-05-07 18:08 | 48.77530 | 2.14991 | 31017 ft | 428 kts | 140° |
| 2026-05-07 18:08 | 48.73103 | 2.21052 | 31014 ft | 429 kts | 140° |
| 2026-05-07 18:09 | 48.68678 | 2.27099 | 31015 ft | 429 kts | 140° |
| 2026-05-07 18:09 | 48.64249 | 2.33143 | 31016 ft | 429 kts | 140° |
| 2026-05-07 18:10 | 48.59813 | 2.39179 | 31007 ft | 429 kts | 141° |
| 2026-05-07 18:10 | 48.55363 | 2.45206 | 31012 ft | 430 kts | 141° |
| 2026-05-07 18:11 | 48.50913 | 2.51228 | 31009 ft | 430 kts | 141° |
| 2026-05-07 18:11 | 48.46460 | 2.57241 | 31012 ft | 430 kts | 141° |
| 2026-05-07 18:12 | 48.42033 | 2.63202 | 31012 ft | 430 kts | 141° |
| 2026-05-07 18:12 | 48.37531 | 2.69237 | 31003 ft | 430 kts | 141° |
| 2026-05-07 18:13 | 48.33092 | 2.75187 | 31005 ft | 431 kts | 141° |
| 2026-05-07 18:13 | 48.28615 | 2.81169 | 31007 ft | 431 kts | 141° |
| 2026-05-07 18:14 | 48.24027 | 2.86946 | 31006 ft | 430 kts | 145° |
| 2026-05-07 18:14 | 48.19265 | 2.92355 | 31012 ft | 429 kts | 146° |
| 2026-05-07 18:15 | 48.14485 | 2.97701 | 30999 ft | 429 kts | 146° |
| 2026-05-07 18:15 | 48.09730 | 3.03115 | 30995 ft | 429 kts | 148° |
| 2026-05-07 18:16 | 48.04502 | 3.07245 | 31003 ft | 424 kts | 160° |
| 2026-05-07 18:16 | 47.99059 | 3.10671 | 31002 ft | 425 kts | 160° |
| 2026-05-07 18:17 | 47.93607 | 3.14088 | 30996 ft | 425 kts | 160° |
| 2026-05-07 18:17 | 47.88166 | 3.17504 | 31000 ft | 425 kts | 160° |
| 2026-05-07 18:18 | 47.82715 | 3.20911 | 31001 ft | 425 kts | 161° |
| 2026-05-07 18:18 | 47.77271 | 3.24313 | 31004 ft | 425 kts | 161° |
| 2026-05-07 18:19 | 47.71813 | 3.27711 | 30998 ft | 425 kts | 161° |
| 2026-05-07 18:19 | 47.66371 | 3.31099 | 30999 ft | 424 kts | 161° |
| 2026-05-07 18:20 | 47.60918 | 3.34486 | 30998 ft | 424 kts | 161° |
| 2026-05-07 18:20 | 47.55465 | 3.37859 | 31001 ft | 425 kts | 161° |
| 2026-05-07 18:21 | 47.50010 | 3.41227 | 30993 ft | 425 kts | 161° |
| 2026-05-07 18:21 | 47.44552 | 3.44590 | 31000 ft | 425 kts | 161° |
| 2026-05-07 18:22 | 47.39082 | 3.47962 | 31003 ft | 425 kts | 161° |
| 2026-05-07 18:22 | 47.33624 | 3.51312 | 31004 ft | 425 kts | 161° |
| 2026-05-07 18:23 | 47.28163 | 3.54660 | 31000 ft | 425 kts | 161° |
| 2026-05-07 18:23 | 47.22709 | 3.57986 | 31004 ft | 424 kts | 161° |
| 2026-05-07 18:24 | 47.17258 | 3.61304 | 31005 ft | 424 kts | 161° |
| 2026-05-07 18:24 | 47.11815 | 3.64611 | 30991 ft | 423 kts | 161° |
| 2026-05-07 18:25 | 47.06373 | 3.67916 | 31003 ft | 423 kts | 161° |
| 2026-05-07 18:25 | 47.00973 | 3.71188 | 30993 ft | 423 kts | 161° |
| 2026-05-07 18:26 | 46.95898 | 3.75619 | 30991 ft | 431 kts | 142° |
| 2026-05-07 18:26 | 46.93835 | 3.78823 | 30990 ft | 436 kts | 130° |
| 2026-05-07 18:26 | 46.92205 | 3.82593 | 30990 ft | 440 kts | 119° |
| 2026-05-07 18:27 | 46.89932 | 3.90948 | 30971 ft | 443 kts | 114° |
| 2026-05-07 18:27 | 46.87706 | 3.99341 | 30984 ft | 443 kts | 114° |
| 2026-05-07 18:28 | 46.85461 | 4.07736 | 30987 ft | 443 kts | 114° |
| 2026-05-07 18:28 | 46.83221 | 4.16126 | 30979 ft | 444 kts | 114° |
| 2026-05-07 18:29 | 46.80972 | 4.24537 | 30984 ft | 445 kts | 112° |
| 2026-05-07 18:29 | 46.79516 | 4.33352 | 30991 ft | 448 kts | 104° |
| 2026-05-07 18:30 | 46.78229 | 4.42265 | 30994 ft | 449 kts | 104° |
| 2026-05-07 18:30 | 46.76914 | 4.51163 | 30994 ft | 449 kts | 104° |
| 2026-05-07 18:31 | 46.75598 | 4.60053 | 31000 ft | 449 kts | 104° |
| 2026-05-07 18:31 | 46.74289 | 4.68953 | 30996 ft | 449 kts | 104° |
| 2026-05-07 18:32 | 46.72967 | 4.77862 | 31001 ft | 449 kts | 104° |
| 2026-05-07 18:32 | 46.71630 | 4.86737 | 30997 ft | 449 kts | 104° |
| 2026-05-07 18:32 | 46.70959 | 4.91180 | 30786 ft | 448 kts | 104° |
| 2026-05-07 18:33 | 46.70289 | 4.95605 | 30163 ft | 447 kts | 104° |
| 2026-05-07 18:33 | 46.69619 | 5.00018 | 29571 ft | 444 kts | 104° |
| 2026-05-07 18:33 | 46.68957 | 5.04379 | 29039 ft | 439 kts | 104° |
| 2026-05-07 18:33 | 46.68301 | 5.08701 | 28506 ft | 435 kts | 104° |
| 2026-05-07 18:34 | 46.67649 | 5.12978 | 27987 ft | 430 kts | 104° |
| 2026-05-07 18:34 | 46.67003 | 5.17204 | 27481 ft | 426 kts | 104° |
| 2026-05-07 18:34 | 46.66366 | 5.21383 | 27045 ft | 420 kts | 104° |
| 2026-05-07 18:34 | 46.65742 | 5.25522 | 26474 ft | 418 kts | 104° |
| 2026-05-07 18:35 | 46.65124 | 5.29625 | 25953 ft | 415 kts | 103° |
| 2026-05-07 18:35 | 46.64508 | 5.33704 | 25515 ft | 410 kts | 103° |
| 2026-05-07 18:35 | 46.63894 | 5.37756 | 24975 ft | 409 kts | 103° |
| 2026-05-07 18:35 | 46.63286 | 5.41760 | 24583 ft | 403 kts | 103° |
| 2026-05-07 18:36 | 46.62681 | 5.45721 | 24002 ft | 398 kts | 103° |
| 2026-05-07 18:36 | 46.62084 | 5.49628 | 23353 ft | 394 kts | 103° |
| 2026-05-07 18:36 | 46.61487 | 5.53501 | 22846 ft | 392 kts | 103° |
| 2026-05-07 18:36 | 46.60889 | 5.57344 | 22364 ft | 389 kts | 103° |
| 2026-05-07 18:37 | 46.60290 | 5.61185 | 21873 ft | 387 kts | 103° |
| 2026-05-07 18:37 | 46.59695 | 5.64978 | 21382 ft | 384 kts | 104° |
| 2026-05-07 18:37 | 46.59099 | 5.68744 | 20947 ft | 381 kts | 104° |
| 2026-05-07 18:37 | 46.58503 | 5.72499 | 20482 ft | 379 kts | 104° |
| 2026-05-07 18:38 | 46.57880 | 5.76208 | 20000 ft | 378 kts | 109° |
| 2026-05-07 18:38 | 46.57034 | 5.79160 | 19683 ft | 372 kts | 119° |
| 2026-05-07 18:38 | 46.55586 | 5.82257 | 19256 ft | 368 kts | 133° |
| 2026-05-07 18:38 | 46.53761 | 5.84787 | 18791 ft | 358 kts | 145° |
| 2026-05-07 18:39 | 46.51740 | 5.86866 | 18064 ft | 356 kts | 148° |
| 2026-05-07 18:39 | 46.49699 | 5.88912 | 17596 ft | 354 kts | 148° |
| 2026-05-07 18:39 | 46.47678 | 5.90930 | 17104 ft | 354 kts | 148° |
| 2026-05-07 18:39 | 46.45662 | 5.92940 | 16773 ft | 348 kts | 147° |
| 2026-05-07 18:40 | 46.43675 | 5.94921 | 16325 ft | 344 kts | 147° |
| 2026-05-07 18:40 | 46.41713 | 5.96877 | 15625 ft | 340 kts | 147° |
| 2026-05-07 18:40 | 46.39784 | 5.98804 | 15023 ft | 335 kts | 147° |
| 2026-05-07 18:40 | 46.37878 | 6.00706 | 14423 ft | 330 kts | 148° |
| 2026-05-07 18:41 | 46.35844 | 6.02082 | 13807 ft | 321 kts | 169° |
| 2026-05-07 18:41 | 46.33623 | 6.02254 | 13144 ft | 322 kts | 191° |
| 2026-05-07 18:41 | 46.31527 | 6.01198 | 12487 ft | 323 kts | 212° |
| 2026-05-07 18:41 | 46.29802 | 5.99112 | 11849 ft | 325 kts | 225° |
| 2026-05-07 18:42 | 46.28206 | 5.96778 | 11227 ft | 327 kts | 225° |
| 2026-05-07 18:42 | 46.26606 | 5.94430 | 10603 ft | 329 kts | 225° |
| 2026-05-07 18:42 | 46.24994 | 5.92070 | 9987 ft | 330 kts | 224° |
| 2026-05-07 18:42 | 46.23377 | 5.89712 | 9332 ft | 331 kts | 224° |
| 2026-05-07 18:43 | 46.21759 | 5.87353 | 8682 ft | 331 kts | 224° |
| 2026-05-07 18:43 | 46.20137 | 5.84992 | 8039 ft | 331 kts | 224° |
| 2026-05-07 18:43 | 46.18518 | 5.82641 | 7405 ft | 330 kts | 224° |
| 2026-05-07 18:43 | 46.16933 | 5.80343 | 7076 ft | 311 kts | 224° |
| 2026-05-07 18:44 | 46.15952 | 5.78921 | 6999 ft | 293 kts | 224° |
| 2026-05-07 18:44 | 46.14578 | 5.76930 | 7005 ft | 273 kts | 224° |
| 2026-05-07 18:44 | 46.13259 | 5.75018 | 7009 ft | 260 kts | 224° |
| 2026-05-07 18:44 | 46.12047 | 5.73259 | 7010 ft | 240 kts | 224° |
| 2026-05-07 18:45 | 46.10244 | 5.71486 | 7017 ft | 249 kts | 199° |
| 2026-05-07 18:45 | 46.09074 | 5.71101 | 7011 ft | 261 kts | 184° |
| 2026-05-07 18:45 | 46.07276 | 5.71478 | 6790 ft | 265 kts | 158° |
| 2026-05-07 18:45 | 46.05777 | 5.72988 | 6363 ft | 266 kts | 136° |
| 2026-05-07 18:46 | 46.04556 | 5.74993 | 6031 ft | 266 kts | 121° |
| 2026-05-07 18:46 | 46.03993 | 5.77514 | 5992 ft | 269 kts | 93° |
| 2026-05-07 18:46 | 46.04277 | 5.80179 | 5995 ft | 271 kts | 73° |
| 2026-05-07 18:46 | 46.05081 | 5.82533 | 5985 ft | 255 kts | 59° |
| 2026-05-07 18:47 | 46.05981 | 5.84639 | 5989 ft | 240 kts | 56° |
| 2026-05-07 18:47 | 46.07049 | 5.86481 | 5765 ft | 239 kts | 46° |
| 2026-05-07 18:47 | 46.08218 | 5.88161 | 5446 ft | 236 kts | 45° |
| 2026-05-07 18:47 | 46.09380 | 5.89827 | 5172 ft | 236 kts | 46° |
| 2026-05-07 18:48 | 46.10535 | 5.91504 | 4855 ft | 236 kts | 46° |
| 2026-05-07 18:48 | 46.11677 | 5.93167 | 4534 ft | 230 kts | 45° |
| 2026-05-07 18:48 | 46.12778 | 5.94772 | 4231 ft | 221 kts | 46° |
| 2026-05-07 18:48 | 46.13841 | 5.96322 | 3957 ft | 211 kts | 45° |
| 2026-05-07 18:49 | 46.14834 | 5.97770 | 3664 ft | 197 kts | 45° |
| 2026-05-07 18:49 | 46.15767 | 5.99132 | 3412 ft | 185 kts | 45° |
| 2026-05-07 18:49 | 46.16646 | 6.00415 | 3169 ft | 175 kts | 45° |
| 2026-05-07 18:49 | 46.17478 | 6.01630 | 2937 ft | 166 kts | 45° |
| 2026-05-07 18:50 | 46.18268 | 6.02786 | 2731 ft | 157 kts | 45° |
| 2026-05-07 18:50 | 46.19018 | 6.03883 | 2520 ft | 151 kts | 45° |
| 2026-05-07 18:50 | 46.19736 | 6.04933 | 2315 ft | 143 kts | 45° |
| 2026-05-07 18:50 | 46.20421 | 6.05935 | 2119 ft | 138 kts | 44° |
| 2026-05-07 18:51 | 46.21091 | 6.06915 | 1933 ft | 137 kts | 44° |
| 2026-05-07 18:51 | 46.21768 | 6.07905 | 1742 ft | 139 kts | 45° |
| 2026-05-07 18:51 | 46.22442 | 6.08895 | 1567 ft | 139 kts | 45° |
| 2026-05-07 18:51 | 46.23114 | 6.09885 | 1431 ft | 137 kts | 44° |
| 2026-05-07 18:52 | 46.23743 | 6.10794 | 1401 ft | 101 kts | 46° |
| 2026-05-07 18:52 | 46.24035 | 6.11235 | 1408 ft | 38 kts | 46° |
| 2026-05-07 18:52 | 46.24214 | 6.11500 | 1402 ft | 36 kts | 45° |
| 2026-05-07 18:52 | 46.24326 | 6.11790 | 1404 ft | 30 kts | 72° |
| 2026-05-07 18:53 | 46.24338 | 6.11849 | 1402 ft | 0 kts | 75° |
| 2026-05-07 18:53 | 46.24342 | 6.11872 | 1395 ft | 5 kts | 75° |
| 2026-05-07 18:53 | 46.24322 | 6.11938 | 1396 ft | 9 kts | 154° |
| 2026-05-07 18:53 | 46.24252 | 6.11884 | 1394 ft | 14 kts | 225° |
| 2026-05-07 18:54 | 46.24169 | 6.11761 | 1403 ft | 20 kts | 226° |
| 2026-05-07 18:54 | 46.24066 | 6.11607 | 1398 ft | 23 kts | 226° |
| 2026-05-07 18:54 | 46.23944 | 6.11431 | 1402 ft | 26 kts | 224° |
| 2026-05-07 18:54 | 46.23842 | 6.11283 | 1401 ft | 5 kts | 220° |
| 2026-05-07 18:55 | 46.23819 | 6.11306 | 1399 ft | 5 kts | 135° |
| 2026-05-07 18:55 | 46.23788 | 6.11349 | 1402 ft | 5 kts | 136° |
| 2026-05-07 18:55 | 46.23786 | 6.11351 | 1399 ft | 0 kts | 136° |
| 2026-05-07 19:01 | 46.23787 | 6.11351 | 1394 ft | 0 kts | 136° |